Kentish Town, United Kingdom
Current Conditions -  °F | °C
As of 6:50 AM on Tuesday 21 Oct 2014 (Local Time) from EGLC Reporting Station
Light Rain Light Rain  
Wind Chill: 59°   Ceiling: 3000
Heat Index: 59°   Visibility: 6mi
Dew Point: 54°   Wind: 20mph
Humidity: 82%   Direction: 230°SW
Pressure: 29.56"   Gusts: NA
Location:  51.55°N, 0.14°W
Report Text: EGLC 210550Z 23017KT 9999 -RA FEW020 BKN030 15/12 Q1001
Loading
Personal Weather Stations






























Interactive Weather Map
Tropical Storm Tracking
New forecast layout! Learn more

10-Day Weather Forecast

Advertisements
Track Severe Weather on mobile